Time;durP1;ratioP1;P1;durP2;ratioP2;P2;SDS_P1;SDS_P2;PMS_P1;PMS_P2;Temp;Humidity;BMP_temperature;BMP_pressure;BME280_temperature;BME280_humidity;BME280_pressure;Samples;Min_cycle;Max_cycle;Signal;HPM_P1;HPM_P2
2024/02/06 00:00:50;;;;;;;;;18.67;17.00;;;;;;;;5080640;27;45211;-78
2024/02/06 00:03:15;;;;;;;;;12.33;9.33;;;;;;;;5080930;27;45310;-79
2024/02/06 00:05:40;;;;;;;;;16.67;16.00;;;;;;;;5079950;27;45308;-78
2024/02/06 00:08:06;;;;;;;;;12.67;12.00;;;;;;;;5080045;27;45222;-77
2024/02/06 00:10:31;;;;;;;;;16.67;14.67;;;;;;;;5079324;28;45315;-78
2024/02/06 00:12:56;;;;;;;;;16.67;11.00;;;;;;;;5078904;28;45562;-78
2024/02/06 00:15:21;;;;;;;;;19.67;17.00;;;;;;;;5080150;27;45516;-78
2024/02/06 00:17:46;;;;;;;;;14.00;13.67;;;;;;;;5078947;28;46108;-76
2024/02/06 00:20:12;;;;;;;;;17.00;16.67;;;;;;;;5065743;27;45317;-76
2024/02/06 00:22:38;;;;;;;;;17.67;15.67;;;;;;;;5060606;28;45347;-78
2024/02/06 00:25:03;;;;;;;;;14.67;12.67;;;;;;;;5059285;28;45331;-77
2024/02/06 00:27:28;;;;;;;;;17.00;15.67;;;;;;;;5059212;28;45341;-78
2024/02/06 00:29:55;;;;;;;;;13.00;13.00;;;;;;;;5060014;28;45340;-77
2024/02/06 00:32:21;;;;;;;;;21.67;15.00;;;;;;;;5059707;28;45560;-77
2024/02/06 00:34:46;;;;;;;;;19.33;16.00;;;;;;;;5059087;28;45179;-77
2024/02/06 00:37:11;;;;;;;;;17.33;13.67;;;;;;;;5059406;28;46638;-76
2024/02/06 00:39:36;;;;;;;;;17.00;16.00;;;;;;;;5059753;28;45216;-78
2024/02/06 00:42:02;;;;;;;;;15.00;14.00;;;;;;;;5058513;28;45220;-78
2024/02/06 00:44:27;;;;;;;;;19.33;18.67;;;;;;;;5059397;28;45359;-77
2024/02/06 00:46:53;;;;;;;;;20.67;18.33;;;;;;;;5058719;28;46151;-78
2024/02/06 00:49:18;;;;;;;;;19.00;19.00;;;;;;;;5058081;28;45372;-77
2024/02/06 00:51:44;;;;;;;;;4.33;1.67;;;;;;;;5058966;28;45344;-77
2024/02/06 00:54:09;;;;;;;;;14.00;13.67;;;;;;;;5057844;28;46145;-77
2024/02/06 00:56:34;;;;;;;;;20.33;17.67;;;;;;;;5060787;28;45315;-78
2024/02/06 00:58:59;;;;;;;;;19.67;16.00;;;;;;;;5079856;27;45320;-78
2024/02/06 01:01:24;;;;;;;;;21.33;17.33;;;;;;;;5078172;28;45377;-78
2024/02/06 01:03:49;;;;;;;;;16.67;14.67;;;;;;;;5078094;28;45934;-78
2024/02/06 01:06:15;;;;;;;;;21.00;17.33;;;;;;;;5079634;27;46271;-77
2024/02/06 01:08:40;;;;;;;;;19.00;18.00;;;;;;;;5079388;27;45310;-78
2024/02/06 01:11:05;;;;;;;;;17.67;13.67;;;;;;;;5079683;27;45239;-78
2024/02/06 01:13:30;;;;;;;;;21.67;20.67;;;;;;;;5079468;27;45461;-78
2024/02/06 01:15:55;;;;;;;;;16.33;14.00;;;;;;;;5079311;28;45579;-78
2024/02/06 01:18:20;;;;;;;;;17.33;16.67;;;;;;;;5077980;28;45268;-77
2024/02/06 01:20:46;;;;;;;;;23.67;20.33;;;;;;;;5078247;28;45556;-77
2024/02/06 01:23:11;;;;;;;;;23.00;19.67;;;;;;;;5077756;28;46943;-77
2024/02/06 01:25:37;;;;;;;;;15.33;15.33;;;;;;;;5079110;27;45290;-77
2024/02/06 01:28:02;;;;;;;;;18.67;18.00;;;;;;;;5078104;28;45704;-77
2024/02/06 01:30:29;;;;;;;;;20.67;17.33;;;;;;;;5078099;28;45374;-77
2024/02/06 01:32:54;;;;;;;;;19.67;17.00;;;;;;;;5077851;28;46084;-77
2024/02/06 01:35:19;;;;;;;;;17.67;16.33;;;;;;;;5078964;28;45376;-78
2024/02/06 01:37:45;;;;;;;;;24.00;20.00;;;;;;;;5077613;28;45366;-77
2024/02/06 01:40:10;;;;;;;;;23.67;18.33;;;;;;;;5079318;27;45300;-77
2024/02/06 01:42:35;;;;;;;;;22.33;17.00;;;;;;;;5077803;28;47219;-77
2024/02/06 01:45:00;;;;;;;;;18.00;18.00;;;;;;;;5077981;28;48144;-78
2024/02/06 01:47:27;;;;;;;;;16.33;15.67;;;;;;;;5081729;28;45390;-77
2024/02/06 01:49:53;;;;;;;;;16.00;15.00;;;;;;;;5082827;28;45404;-78
2024/02/06 01:52:19;;;;;;;;;21.00;17.33;;;;;;;;5080520;28;45858;-77
2024/02/06 01:54:44;;;;;;;;;15.33;14.00;;;;;;;;5082582;27;45382;-77
2024/02/06 01:57:09;;;;;;;;;20.00;18.67;;;;;;;;5074806;28;45169;-77
2024/02/06 01:59:35;;;;;;;;;20.67;19.33;;;;;;;;5061122;28;45259;-78
2024/02/06 02:02:00;;;;;;;;;23.67;20.00;;;;;;;;5062028;28;45434;-78
2024/02/06 02:04:25;;;;;;;;;21.67;19.33;;;;;;;;5060566;28;48625;-78
2024/02/06 02:06:51;;;;;;;;;22.33;21.33;;;;;;;;5060647;28;45608;-78
2024/02/06 02:09:16;;;;;;;;;19.67;19.00;;;;;;;;5062102;28;45161;-78
2024/02/06 02:11:41;;;;;;;;;23.00;19.33;;;;;;;;5062052;28;45450;-77
2024/02/06 02:14:07;;;;;;;;;27.33;19.67;;;;;;;;5061928;28;45312;-77
2024/02/06 02:16:32;;;;;;;;;17.33;16.00;;;;;;;;5060455;28;45385;-78
2024/02/06 02:18:58;;;;;;;;;25.33;22.33;;;;;;;;5062064;28;45295;-78
2024/02/06 02:21:23;;;;;;;;;21.00;18.33;;;;;;;;5061972;28;45314;-78
2024/02/06 02:23:49;;;;;;;;;22.67;22.67;;;;;;;;5059400;28;47281;-78
2024/02/06 02:26:14;;;;;;;;;20.67;19.67;;;;;;;;5061832;28;45359;-77
2024/02/06 02:28:41;;;;;;;;;21.33;19.00;;;;;;;;5061731;28;45405;-77
2024/02/06 02:31:06;;;;;;;;;30.00;28.67;;;;;;;;5059444;28;46611;-77
2024/02/06 02:33:32;;;;;;;;;17.33;16.33;;;;;;;;5061215;28;45256;-77
2024/02/06 02:35:57;;;;;;;;;27.33;22.00;;;;;;;;5060415;28;45201;-77
2024/02/06 02:38:23;;;;;;;;;24.00;22.00;;;;;;;;5060279;28;45286;-78
2024/02/06 02:40:48;;;;;;;;;27.33;24.00;;;;;;;;5061367;28;45191;-77
2024/02/06 02:43:13;;;;;;;;;24.67;24.67;;;;;;;;5060066;28;47477;-78
2024/02/06 02:45:39;;;;;;;;;24.67;20.33;;;;;;;;5061496;28;45325;-78
2024/02/06 02:48:04;;;;;;;;;22.67;22.67;;;;;;;;5061694;28;45166;-78
2024/02/06 02:50:29;;;;;;;;;22.67;19.00;;;;;;;;5061102;28;45425;-78
2024/02/06 02:52:54;;;;;;;;;26.00;21.33;;;;;;;;5060169;28;45287;-78
2024/02/06 02:55:19;;;;;;;;;31.33;24.00;;;;;;;;5061449;28;45508;-77
2024/02/06 02:57:45;;;;;;;;;29.33;28.00;;;;;;;;5069888;28;45290;-77
2024/02/06 03:00:11;;;;;;;;;23.00;22.00;;;;;;;;5080124;28;46081;-77
2024/02/06 03:02:36;;;;;;;;;27.67;26.00;;;;;;;;5081636;27;45370;-77
2024/02/06 03:05:01;;;;;;;;;25.33;24.33;;;;;;;;5081146;27;45377;-77
2024/02/06 03:07:26;;;;;;;;;27.67;26.00;;;;;;;;5081363;27;45518;-78
2024/02/06 03:09:51;;;;;;;;;26.00;23.33;;;;;;;;5066652;27;45370;-79
2024/02/06 03:12:17;;;;;;;;;30.00;27.67;;;;;;;;5059675;28;47967;-78
2024/02/06 03:14:42;;;;;;;;;27.67;22.00;;;;;;;;5059981;28;45432;-78
2024/02/06 03:17:07;;;;;;;;;31.33;27.67;;;;;;;;5061148;28;45311;-78
2024/02/06 03:19:32;;;;;;;;;22.33;20.33;;;;;;;;5060756;28;45284;-77
2024/02/06 03:21:57;;;;;;;;;25.00;23.33;;;;;;;;5060494;28;45353;-77
2024/02/06 03:24:27;;;;;;;;;26.67;24.67;;;;;;;;5060643;28;45406;-77
2024/02/06 03:26:52;;;;;;;;;24.00;23.33;;;;;;;;5061008;28;45220;-78
2024/02/06 03:29:18;;;;;;;;;28.67;27.33;;;;;;;;5059242;28;47206;-77
2024/02/06 03:31:44;;;;;;;;;31.33;29.33;;;;;;;;5060683;28;45257;-78
2024/02/06 03:34:09;;;;;;;;;25.00;22.00;;;;;;;;5059462;28;45693;-77
2024/02/06 03:36:34;;;;;;;;;25.67;21.33;;;;;;;;5059208;28;45322;-78
2024/02/06 03:39:00;;;;;;;;;26.00;23.00;;;;;;;;5060383;28;45274;-78
2024/02/06 03:41:25;;;;;;;;;27.33;24.00;;;;;;;;5059405;28;47606;-77
2024/02/06 03:43:50;;;;;;;;;25.67;22.67;;;;;;;;5060639;28;45220;-78
2024/02/06 03:46:15;;;;;;;;;23.00;21.00;;;;;;;;5060246;28;45359;-78
2024/02/06 03:48:40;;;;;;;;;29.00;27.00;;;;;;;;5060442;28;45219;-78
2024/02/06 03:51:06;;;;;;;;;27.33;26.00;;;;;;;;5058876;28;47471;-78
2024/02/06 03:53:31;;;;;;;;;21.00;20.33;;;;;;;;5060353;28;45272;-77
2024/02/06 03:55:57;;;;;;;;;28.00;25.67;;;;;;;;5060452;28;45318;-77
2024/02/06 03:58:22;;;;;;;;;29.33;24.00;;;;;;;;5076772;28;45326;-77
2024/02/06 04:00:50;;;;;;;;;30.33;24.67;;;;;;;;5079293;28;48170;-78
2024/02/06 04:03:15;;;;;;;;;29.67;28.00;;;;;;;;5041048;28;45363;-78
2024/02/06 04:05:41;;;;;;;;;27.33;24.00;;;;;;;;5038672;28;45295;-77
2024/02/06 04:08:06;;;;;;;;;24.67;23.00;;;;;;;;5037821;28;45637;-77
2024/02/06 04:10:31;;;;;;;;;26.67;25.67;;;;;;;;5038368;28;47318;-78
2024/02/06 04:12:56;;;;;;;;;28.67;22.67;;;;;;;;5039960;28;45320;-77
2024/02/06 04:15:22;;;;;;;;;26.33;22.00;;;;;;;;5055607;28;45361;-78
2024/02/06 04:17:47;;;;;;;;;30.00;26.00;;;;;;;;5039926;28;45319;-76
2024/02/06 04:20:12;;;;;;;;;27.00;25.33;;;;;;;;5039874;28;45521;-78
2024/02/06 04:22:37;;;;;;;;;25.67;21.33;;;;;;;;5039654;28;45280;-77
2024/02/06 04:25:03;;;;;;;;;27.67;23.67;;;;;;;;5039746;28;45371;-78
2024/02/06 04:27:29;;;;;;;;;30.00;26.33;;;;;;;;5054381;28;46274;-77
2024/02/06 04:29:55;;;;;;;;;29.00;25.67;;;;;;;;5039024;28;45211;-77
2024/02/06 04:32:20;;;;;;;;;35.67;27.33;;;;;;;;5039742;28;45298;-77
2024/02/06 04:34:45;;;;;;;;;31.67;28.33;;;;;;;;5039750;28;45361;-77
2024/02/06 04:37:10;;;;;;;;;31.00;25.67;;;;;;;;5039592;28;45195;-77
2024/02/06 04:39:36;;;;;;;;;22.67;21.33;;;;;;;;5039577;28;45289;-77
2024/02/06 04:42:01;;;;;;;;;21.00;20.00;;;;;;;;5039771;28;45212;-77
2024/02/06 04:44:26;;;;;;;;;29.00;25.00;;;;;;;;5039837;28;45579;-77
2024/02/06 04:46:53;;;;;;;;;25.33;22.00;;;;;;;;5039523;28;45388;-77
2024/02/06 04:49:18;;;;;;;;;22.33;21.00;;;;;;;;5054687;28;48285;-78
2024/02/06 04:51:43;;;;;;;;;20.00;17.00;;;;;;;;5037794;28;45379;-77
2024/02/06 04:54:08;;;;;;;;;25.00;24.67;;;;;;;;5038376;28;45311;-77
2024/02/06 04:56:33;;;;;;;;;31.33;27.33;;;;;;;;5044621;28;45296;-77
2024/02/06 04:59:00;;;;;;;;;27.00;26.00;;;;;;;;5078438;28;47276;-77
2024/02/06 05:01:25;;;;;;;;;30.00;24.33;;;;;;;;5079620;27;45396;-77
2024/02/06 05:03:51;;;;;;;;;19.67;19.67;;;;;;;;5078587;28;45346;-76
2024/02/06 05:06:17;;;;;;;;;28.33;23.67;;;;;;;;5079989;27;45304;-77
2024/02/06 05:08:42;;;;;;;;;26.33;22.00;;;;;;;;5079388;28;45302;-78
2024/02/06 05:11:07;;;;;;;;;25.67;24.33;;;;;;;;5079446;27;45233;-78
2024/02/06 05:13:32;;;;;;;;;23.67;21.00;;;;;;;;5079692;27;45913;-77
2024/02/06 05:15:58;;;;;;;;;23.33;19.33;;;;;;;;5079499;27;45227;-78
2024/02/06 05:18:23;;;;;;;;;23.33;20.67;;;;;;;;5079400;28;46488;-77
2024/02/06 05:20:48;;;;;;;;;24.67;24.00;;;;;;;;5081217;28;45807;-78
2024/02/06 05:23:14;;;;;;;;;26.67;22.00;;;;;;;;5083096;27;45231;-77
2024/02/06 05:25:41;;;;;;;;;22.33;21.00;;;;;;;;5082759;27;45434;-78
2024/02/06 05:28:06;;;;;;;;;26.00;21.33;;;;;;;;5083230;28;45287;-77
2024/02/06 05:30:32;;;;;;;;;23.00;22.33;;;;;;;;5081179;28;45429;-78
2024/02/06 05:32:57;;;;;;;;;26.33;24.00;;;;;;;;5083399;27;45363;-79
2024/02/06 05:35:22;;;;;;;;;22.33;21.67;;;;;;;;5082619;27;45652;-78
2024/02/06 05:37:49;;;;;;;;;28.67;25.00;;;;;;;;5077154;27;45406;-78
2024/02/06 05:40:15;;;;;;;;;25.00;23.33;;;;;;;;5062975;28;45283;-79
2024/02/06 05:42:40;;;;;;;;;26.33;24.67;;;;;;;;5063088;28;45330;-77
2024/02/06 05:45:07;;;;;;;;;26.67;23.33;;;;;;;;5061606;28;47509;-77
2024/02/06 05:47:32;;;;;;;;;27.00;22.33;;;;;;;;5063863;28;46685;-78
2024/02/06 05:49:57;;;;;;;;;28.33;22.67;;;;;;;;5064807;28;45390;-79
2024/02/06 05:52:24;;;;;;;;;30.00;26.00;;;;;;;;5060672;28;45381;-78
2024/02/06 05:54:49;;;;;;;;;20.67;19.33;;;;;;;;5062297;28;45512;-78
2024/02/06 05:57:14;;;;;;;;;27.33;24.67;;;;;;;;5068669;28;47326;-79
2024/02/06 05:59:40;;;;;;;;;22.67;21.67;;;;;;;;5094007;27;45137;-81
2024/02/06 06:02:05;;;;;;;;;25.33;20.00;;;;;;;;5087102;27;45393;-80
2024/02/06 06:04:30;;;;;;;;;28.67;24.67;;;;;;;;5082968;28;47043;-80
2024/02/06 06:06:55;;;;;;;;;24.33;22.67;;;;;;;;5082836;28;47545;-83
2024/02/06 06:09:20;;;;;;;;;26.33;25.67;;;;;;;;5082603;28;46193;-80
2024/02/06 06:11:45;;;;;;;;;31.00;24.33;;;;;;;;5085621;28;45239;-79
2024/02/06 06:14:11;;;;;;;;;26.67;24.67;;;;;;;;5085386;27;45505;-81
2024/02/06 06:16:36;;;;;;;;;23.33;21.67;;;;;;;;5080748;28;48071;-80
2024/02/06 06:19:01;;;;;;;;;24.00;22.33;;;;;;;;5082212;28;45667;-80
2024/02/06 06:21:26;;;;;;;;;21.33;20.67;;;;;;;;5082572;27;45358;-80
2024/02/06 06:23:52;;;;;;;;;27.00;25.33;;;;;;;;5082147;28;45406;-81
2024/02/06 06:26:17;;;;;;;;;30.00;23.00;;;;;;;;5071413;28;47512;-81
2024/02/06 06:28:42;;;;;;;;;23.67;22.33;;;;;;;;5061699;28;45314;-82
2024/02/06 06:31:08;;;;;;;;;20.00;17.33;;;;;;;;5061194;28;45391;-81
2024/02/06 06:33:33;;;;;;;;;25.33;21.33;;;;;;;;5059461;28;46146;-81
2024/02/06 06:35:58;;;;;;;;;18.33;17.67;;;;;;;;5059580;28;47340;-81
2024/02/06 06:38:24;;;;;;;;;28.00;25.67;;;;;;;;5061457;28;45374;-80
2024/02/06 06:40:49;;;;;;;;;23.67;23.33;;;;;;;;5061837;28;45401;-82
2024/02/06 06:43:15;;;;;;;;;24.00;22.00;;;;;;;;5061623;28;45307;-80
2024/02/06 06:45:40;;;;;;;;;24.33;23.33;;;;;;;;5060243;28;47477;-81
2024/02/06 06:48:06;;;;;;;;;23.33;19.00;;;;;;;;5061408;28;45315;-80
2024/02/06 06:50:31;;;;;;;;;21.33;20.33;;;;;;;;5061260;28;45318;-80
2024/02/06 06:52:56;;;;;;;;;26.00;24.00;;;;;;;;5061316;28;45331;-80
2024/02/06 06:55:21;;;;;;;;;20.67;20.00;;;;;;;;5061583;28;45792;-81
2024/02/06 06:57:46;;;;;;;;;27.00;24.00;;;;;;;;5071337;28;45879;-81
2024/02/06 07:00:12;;;;;;;;;21.67;19.00;;;;;;;;5081928;28;45211;-80
2024/02/06 07:02:39;;;;;;;;;24.00;22.00;;;;;;;;5080227;28;46681;-80
2024/02/06 07:05:06;;;;;;;;;23.00;21.33;;;;;;;;5081349;27;46486;-81
2024/02/06 07:07:32;;;;;;;;;17.67;16.67;;;;;;;;5081113;27;45366;-80
2024/02/06 07:09:57;;;;;;;;;23.67;22.00;;;;;;;;5081486;28;45306;-81
2024/02/06 07:12:23;;;;;;;;;20.33;19.00;;;;;;;;5081424;27;45393;-81
2024/02/06 07:14:48;;;;;;;;;22.33;21.00;;;;;;;;5081371;27;45432;-80
2024/02/06 07:17:13;;;;;;;;;22.33;20.33;;;;;;;;5081313;27;45431;-81
2024/02/06 07:19:38;;;;;;;;;26.33;23.33;;;;;;;;5081371;27;45356;-82
2024/02/06 07:22:03;;;;;;;;;23.00;20.67;;;;;;;;5079534;28;46057;-81
2024/02/06 07:24:29;;;;;;;;;24.67;23.33;;;;;;;;5080987;28;45423;-80
2024/02/06 07:26:54;;;;;;;;;23.33;19.00;;;;;;;;5081307;28;45268;-81
2024/02/06 07:29:19;;;;;;;;;23.67;22.33;;;;;;;;5081230;27;45555;-82
2024/02/06 07:31:44;;;;;;;;;21.00;16.50;;;;;;;;5079669;28;46474;-81
2024/02/06 07:34:10;;;;;;;;;21.33;21.00;;;;;;;;5079613;28;47365;-80
2024/02/06 07:36:35;;;;;;;;;25.67;23.67;;;;;;;;5080831;28;45252;-80
2024/02/06 07:39:00;;;;;;;;;22.67;19.67;;;;;;;;5081374;27;45353;-81
2024/02/06 07:41:26;;;;;;;;;23.33;21.00;;;;;;;;5080946;28;45311;-80
2024/02/06 07:43:51;;;;;;;;;22.00;20.33;;;;;;;;5079837;28;45495;-81
2024/02/06 07:46:19;;;;;;;;;20.67;20.67;;;;;;;;5080817;27;45538;-81
2024/02/06 07:48:44;;;;;;;;;21.33;21.00;;;;;;;;5080964;27;45307;-80
2024/02/06 07:51:11;;;;;;;;;21.67;21.33;;;;;;;;5079125;28;45435;-80
2024/02/06 07:53:36;;;;;;;;;20.67;19.67;;;;;;;;5080832;27;45214;-82
2024/02/06 07:56:04;;;;;;;;;23.67;22.00;;;;;;;;5079516;28;45316;-81
2024/02/06 07:58:29;;;;;;;;;24.33;20.00;;;;;;;;5063235;27;45401;-81
2024/02/06 08:00:54;;;;;;;;;27.00;24.00;;;;;;;;5060191;28;45577;-81
2024/02/06 08:03:19;;;;;;;;;21.33;19.67;;;;;;;;5061016;28;45504;-79
2024/02/06 08:05:44;;;;;;;;;27.00;23.67;;;;;;;;5051987;28;46042;-79
2024/02/06 08:08:10;;;;;;;;;24.67;23.00;;;;;;;;5057766;28;45337;-79
2024/02/06 08:10:35;;;;;;;;;21.33;16.67;;;;;;;;5060425;28;45866;-79
2024/02/06 08:13:00;;;;;;;;;26.67;23.00;;;;;;;;5062941;28;46048;-79
2024/02/06 08:15:25;;;;;;;;;21.00;20.67;;;;;;;;5061826;28;45341;-78
2024/02/06 08:17:50;;;;;;;;;21.33;20.67;;;;;;;;5061876;28;45686;-79
2024/02/06 08:20:19;;;;;;;;;24.00;19.00;;;;;;;;5061111;28;45308;-79
2024/02/06 08:22:47;;;;;;;;;24.67;21.67;;;;;;;;5062128;28;45255;-80
2024/02/06 08:25:13;;;;;;;;;22.67;20.33;;;;;;;;5061949;28;45487;-80
2024/02/06 08:27:38;;;;;;;;;25.67;20.67;;;;;;;;5060209;28;45301;-77
2024/02/06 08:30:05;;;;;;;;;20.00;19.33;;;;;;;;5059441;28;46158;-76
2024/02/06 08:32:31;;;;;;;;;21.33;19.67;;;;;;;;5058381;28;48034;-77
2024/02/06 08:34:56;;;;;;;;;17.67;17.00;;;;;;;;5058782;28;45390;-77
2024/02/06 08:37:21;;;;;;;;;16.33;16.33;;;;;;;;5062401;28;45307;-77
2024/02/06 08:39:47;;;;;;;;;19.00;18.33;;;;;;;;5059691;28;45433;-77
2024/02/06 08:42:12;;;;;;;;;17.33;17.33;;;;;;;;5058114;28;48292;-80
2024/02/06 08:44:38;;;;;;;;;20.33;17.67;;;;;;;;5059764;28;45335;-76
2024/02/06 08:47:03;;;;;;;;;17.00;15.67;;;;;;;;5059738;28;45243;-76
2024/02/06 08:49:28;;;;;;;;;21.33;19.67;;;;;;;;5059593;28;45600;-77
2024/02/06 08:51:53;;;;;;;;;20.00;18.33;;;;;;;;5059123;28;45768;-79
2024/02/06 08:54:20;;;;;;;;;16.67;16.33;;;;;;;;5059291;28;45632;-77
2024/02/06 08:56:46;;;;;;;;;18.33;18.33;;;;;;;;5059910;28;45236;-79
2024/02/06 08:59:11;;;;;;;;;19.00;16.00;;;;;;;;5060657;28;45500;-76
2024/02/06 09:01:36;;;;;;;;;12.67;10.67;;;;;;;;5058078;28;46950;-76
2024/02/06 09:04:04;;;;;;;;;15.00;14.67;;;;;;;;5057244;28;45361;-78
2024/02/06 09:06:30;;;;;;;;;20.00;17.67;;;;;;;;5048778;28;45481;-77
2024/02/06 09:08:58;;;;;;;;;19.67;18.33;;;;;;;;5056240;28;46556;-76
2024/02/06 09:11:23;;;;;;;;;19.67;16.00;;;;;;;;5056367;28;48112;-76
2024/02/06 09:13:49;;;;;;;;;19.00;17.00;;;;;;;;5056462;28;45479;-77
2024/02/06 09:16:14;;;;;;;;;15.00;13.00;;;;;;;;5056452;28;45477;-76
2024/02/06 09:18:39;;;;;;;;;19.00;17.67;;;;;;;;5057270;28;46978;-76
2024/02/06 09:21:04;;;;;;;;;15.33;13.67;;;;;;;;5057129;28;45648;-77
2024/02/06 09:23:30;;;;;;;;;19.67;16.67;;;;;;;;5058618;28;45441;-76
2024/02/06 09:25:55;;;;;;;;;15.00;13.33;;;;;;;;5059287;28;45767;-75
2024/02/06 09:28:20;;;;;;;;;17.00;14.00;;;;;;;;5058229;28;45382;-76
2024/02/06 09:30:46;;;;;;;;;15.00;13.67;;;;;;;;5057048;28;45390;-76
2024/02/06 09:33:12;;;;;;;;;15.67;13.67;;;;;;;;5059467;28;45370;-76
2024/02/06 09:35:37;;;;;;;;;12.00;11.33;;;;;;;;5058038;28;45657;-76
2024/02/06 09:38:02;;;;;;;;;14.33;13.67;;;;;;;;5058561;28;45366;-76
2024/02/06 09:40:27;;;;;;;;;17.67;16.33;;;;;;;;5058615;28;45453;-77
2024/02/06 09:42:53;;;;;;;;;13.00;12.00;;;;;;;;5064197;28;45455;-77
2024/02/06 09:45:18;;;;;;;;;16.67;14.00;;;;;;;;5063311;28;45331;-78
2024/02/06 09:47:43;;;;;;;;;10.33;10.00;;;;;;;;5058308;28;45503;-75
2024/02/06 09:50:09;;;;;;;;;12.33;10.67;;;;;;;;5056922;28;47180;-76
2024/02/06 09:52:35;;;;;;;;;18.67;14.67;;;;;;;;5056830;28;45398;-76
2024/02/06 09:55:03;;;;;;;;;16.00;15.00;;;;;;;;5047331;28;45935;-76
2024/02/06 09:57:28;;;;;;;;;18.67;16.67;;;;;;;;5066622;28;45765;-75
2024/02/06 09:59:55;;;;;;;;;14.67;11.67;;;;;;;;5078227;28;46271;-76
2024/02/06 10:02:24;;;;;;;;;17.00;15.00;;;;;;;;5056282;28;45859;-76
2024/02/06 10:04:51;;;;;;;;;13.67;11.33;;;;;;;;5062244;28;45377;-77
2024/02/06 10:07:16;;;;;;;;;18.33;15.00;;;;;;;;5061616;28;45727;-76
2024/02/06 10:09:43;;;;;;;;;18.00;15.00;;;;;;;;5063605;28;47040;-76
2024/02/06 10:12:09;;;;;;;;;15.33;13.67;;;;;;;;5059966;28;45446;-76
2024/02/06 10:14:34;;;;;;;;;13.33;13.33;;;;;;;;5060990;28;46292;-75
2024/02/06 10:16:59;;;;;;;;;13.00;11.33;;;;;;;;5060685;28;45302;-76
2024/02/06 10:19:34;;;;;;;;;12.33;12.00;;;;;;;;5063864;28;46301;-77
2024/02/06 10:21:59;;;;;;;;;17.00;15.33;;;;;;;;5061751;28;45335;-77
2024/02/06 10:24:24;;;;;;;;;19.33;18.00;;;;;;;;5062119;28;45355;-78
2024/02/06 10:27:04;;;;;;;;;17.67;16.33;;;;;;;;5060680;28;45276;-76
2024/02/06 10:29:31;;;;;;;;;13.00;9.33;;;;;;;;5061540;28;48311;-75
2024/02/06 10:31:58;;;;;;;;;12.67;11.33;;;;;;;;5065690;28;45310;-76
2024/02/06 10:34:24;;;;;;;;;12.67;11.67;;;;;;;;5066491;28;45453;-77
2024/02/06 10:36:55;;;;;;;;;15.33;12.67;;;;;;;;5061531;28;45512;-74
2024/02/06 10:39:20;;;;;;;;;16.00;15.33;;;;;;;;5060719;28;46347;-77
2024/02/06 10:41:45;;;;;;;;;9.67;8.33;;;;;;;;5060333;28;45385;-75
2024/02/06 10:44:13;;;;;;;;;10.00;9.00;;;;;;;;5061360;28;45298;-76
2024/02/06 10:46:39;;;;;;;;;12.00;10.00;;;;;;;;5062433;28;46647;-75
2024/02/06 10:49:04;;;;;;;;;5.67;3.00;;;;;;;;5062816;28;45605;-76
2024/02/06 10:51:30;;;;;;;;;14.00;11.67;;;;;;;;5063461;28;45355;-76
2024/02/06 10:53:56;;;;;;;;;9.33;8.00;;;;;;;;5060585;28;45452;-76
2024/02/06 10:56:21;;;;;;;;;11.33;9.33;;;;;;;;5056854;28;46078;-77
2024/02/06 10:58:54;;;;;;;;;13.00;11.00;;;;;;;;5056991;28;46619;-75
2024/02/06 11:01:20;;;;;;;;;9.67;7.00;;;;;;;;5063972;28;45608;-77
2024/02/06 11:03:49;;;;;;;;;10.33;10.00;;;;;;;;5061338;28;45374;-76
2024/02/06 11:06:17;;;;;;;;;12.67;11.33;;;;;;;;5062481;28;45339;-76
2024/02/06 11:08:44;;;;;;;;;12.00;11.00;;;;;;;;5065879;28;45518;-75
2024/02/06 11:11:09;;;;;;;;;12.00;12.00;;;;;;;;5065827;28;45216;-78
2024/02/06 11:13:35;;;;;;;;;9.00;9.00;;;;;;;;5062944;28;45284;-77
2024/02/06 11:16:05;;;;;;;;;11.33;11.00;;;;;;;;5065680;28;45432;-77
2024/02/06 11:18:33;;;;;;;;;16.33;14.67;;;;;;;;5063860;28;46678;-80
2024/02/06 11:21:00;;;;;;;;;13.33;12.00;;;;;;;;5069921;28;45283;-78
2024/02/06 11:23:26;;;;;;;;;14.33;13.33;;;;;;;;5063237;28;45350;-76
2024/02/06 11:25:52;;;;;;;;;11.67;11.67;;;;;;;;5066949;28;45350;-76
2024/02/06 11:28:17;;;;;;;;;14.33;13.00;;;;;;;;5069473;28;47580;-76
2024/02/06 11:30:43;;;;;;;;;12.33;12.00;;;;;;;;5066615;28;45355;-76
2024/02/06 11:33:09;;;;;;;;;15.00;15.00;;;;;;;;5064376;28;45337;-76
2024/02/06 11:35:35;;;;;;;;;12.67;12.67;;;;;;;;5061666;28;46530;-76
2024/02/06 11:38:01;;;;;;;;;16.00;13.67;;;;;;;;5065076;28;48192;-80
2024/02/06 11:40:28;;;;;;;;;12.00;12.00;;;;;;;;5062941;28;45390;-75
2024/02/06 11:43:06;;;;;;;;;14.00;13.67;;;;;;;;5056797;28;45273;-76
2024/02/06 11:45:33;;;;;;;;;11.67;10.33;;;;;;;;5062421;28;45567;-76
2024/02/06 11:48:02;;;;;;;;;12.33;12.33;;;;;;;;5057996;28;45545;-75
2024/02/06 11:50:30;;;;;;;;;17.00;14.00;;;;;;;;5064494;28;45382;-78
2024/02/06 11:53:01;;;;;;;;;12.67;12.67;;;;;;;;5059326;28;46048;-76
2024/02/06 11:55:26;;;;;;;;;11.33;10.67;;;;;;;;5059713;28;45277;-76
2024/02/06 11:57:52;;;;;;;;;8.00;7.00;;;;;;;;5059188;28;47288;-75
2024/02/06 12:00:17;;;;;;;;;15.33;12.00;;;;;;;;5063396;28;45517;-77
2024/02/06 12:02:43;;;;;;;;;12.33;11.67;;;;;;;;5059140;28;45374;-75
2024/02/06 12:05:08;;;;;;;;;10.67;10.67;;;;;;;;5057856;28;45219;-74
2024/02/06 12:07:34;;;;;;;;;13.00;13.00;;;;;;;;5061695;28;45890;-75
2024/02/06 12:09:59;;;;;;;;;13.67;13.00;;;;;;;;5061253;28;45386;-76
2024/02/06 12:12:24;;;;;;;;;14.00;12.33;;;;;;;;5059957;28;45462;-76
2024/02/06 12:14:50;;;;;;;;;14.00;13.67;;;;;;;;5067103;28;45710;-76
2024/02/06 12:17:15;;;;;;;;;14.33;14.00;;;;;;;;5061398;28;45276;-76
2024/02/06 12:19:41;;;;;;;;;19.00;18.67;;;;;;;;5059094;28;45263;-75
2024/02/06 12:22:07;;;;;;;;;14.00;14.00;;;;;;;;5058174;28;45349;-75
2024/02/06 12:24:32;;;;;;;;;13.67;11.00;;;;;;;;5060342;28;45410;-76
2024/02/06 12:27:07;;;;;;;;;10.67;10.33;;;;;;;;5059996;28;45349;-76
2024/02/06 12:29:37;;;;;;;;;13.00;12.00;;;;;;;;5059545;28;45380;-75
2024/02/06 12:32:03;;;;;;;;;18.33;15.67;;;;;;;;5060291;28;45216;-76
2024/02/06 12:34:29;;;;;;;;;14.33;14.33;;;;;;;;5059793;28;45243;-76
2024/02/06 12:36:54;;;;;;;;;14.33;14.33;;;;;;;;5059777;28;46050;-75
2024/02/06 12:39:21;;;;;;;;;15.33;15.00;;;;;;;;5059887;28;45199;-75
2024/02/06 12:41:46;;;;;;;;;12.00;11.33;;;;;;;;5058850;28;45257;-76
2024/02/06 12:44:11;;;;;;;;;15.33;11.67;;;;;;;;5058214;28;45393;-75
2024/02/06 12:46:36;;;;;;;;;12.33;10.33;;;;;;;;5047112;28;47418;-74
2024/02/06 12:49:03;;;;;;;;;15.00;14.00;;;;;;;;5039522;28;45425;-75
2024/02/06 12:51:28;;;;;;;;;14.67;14.00;;;;;;;;5038926;28;45692;-75
2024/02/06 12:53:54;;;;;;;;;13.00;13.00;;;;;;;;5038036;28;46137;-75
2024/02/06 12:56:19;;;;;;;;;13.67;12.67;;;;;;;;5039263;28;45303;-74
2024/02/06 12:58:45;;;;;;;;;9.67;9.67;;;;;;;;5077890;28;45333;-76
2024/02/06 13:01:10;;;;;;;;;13.33;11.67;;;;;;;;5078315;28;45319;-76
2024/02/06 13:03:39;;;;;;;;;11.33;9.33;;;;;;;;5068506;27;45656;-76
2024/02/06 13:06:04;;;;;;;;;10.67;10.67;;;;;;;;5038989;28;46335;-76
2024/02/06 13:08:30;;;;;;;;;16.33;15.00;;;;;;;;5046586;28;45371;-76
2024/02/06 13:10:55;;;;;;;;;12.67;12.33;;;;;;;;5058620;28;45372;-77
2024/02/06 13:13:20;;;;;;;;;15.67;14.00;;;;;;;;5058942;28;45379;-77
2024/02/06 13:15:47;;;;;;;;;15.00;15.00;;;;;;;;5058933;28;46029;-74
2024/02/06 13:18:19;;;;;;;;;13.33;12.67;;;;;;;;5059797;28;45411;-77
2024/02/06 13:20:46;;;;;;;;;16.00;16.00;;;;;;;;5059615;28;45441;-75
2024/02/06 13:23:12;;;;;;;;;11.00;10.33;;;;;;;;5059167;28;45235;-76
2024/02/06 13:25:37;;;;;;;;;15.00;14.00;;;;;;;;5059161;28;45410;-77
2024/02/06 13:28:03;;;;;;;;;13.33;13.33;;;;;;;;5059609;28;45236;-77
2024/02/06 13:30:29;;;;;;;;;13.33;12.00;;;;;;;;5055373;28;45822;-77
2024/02/06 13:32:54;;;;;;;;;12.67;11.67;;;;;;;;5058597;28;45374;-76
2024/02/06 13:35:19;;;;;;;;;16.33;15.67;;;;;;;;5059399;28;46207;-77
2024/02/06 13:37:45;;;;;;;;;15.67;15.67;;;;;;;;5058630;28;45548;-77
2024/02/06 13:40:10;;;;;;;;;14.67;13.67;;;;;;;;5055551;28;45358;-79
2024/02/06 13:42:35;;;;;;;;;14.67;14.00;;;;;;;;5059928;28;45390;-77
2024/02/06 13:45:01;;;;;;;;;13.00;10.00;;;;;;;;5062168;28;45381;-77
2024/02/06 13:47:26;;;;;;;;;12.33;10.33;;;;;;;;5062243;28;45208;-78
2024/02/06 13:49:51;;;;;;;;;19.67;18.00;;;;;;;;5062006;28;45413;-78
2024/02/06 13:52:16;;;;;;;;;14.33;14.33;;;;;;;;5060500;28;46766;-77
2024/02/06 13:54:42;;;;;;;;;17.00;16.00;;;;;;;;5061040;28;46909;-77
2024/02/06 13:57:08;;;;;;;;;18.00;15.67;;;;;;;;5066795;28;45315;-78
2024/02/06 13:59:33;;;;;;;;;12.67;12.67;;;;;;;;5067862;27;45573;-78
2024/02/06 14:01:58;;;;;;;;;13.33;13.33;;;;;;;;5062314;28;45200;-78
2024/02/06 14:04:23;;;;;;;;;15.67;15.33;;;;;;;;5061468;28;46453;-78
2024/02/06 14:06:48;;;;;;;;;16.33;15.33;;;;;;;;5060126;28;45751;-77
2024/02/06 14:09:13;;;;;;;;;15.67;14.00;;;;;;;;5062340;28;45208;-77